sensor_id;sensor_type;location;lat;lon;timestamp;P1;durP1;ratioP1;P2;durP2;ratioP2
42364;SDS011;28498;54.400;18.566;2023-02-02T00:01:24;6.38;;;2.83;;
42364;SDS011;28498;54.400;18.566;2023-02-02T00:03:51;8.75;;;2.65;;
42364;SDS011;28498;54.400;18.566;2023-02-02T00:06:19;5.78;;;2.75;;
42364;SDS011;28498;54.400;18.566;2023-02-02T00:08:48;17.83;;;5.07;;
42364;SDS011;28498;54.400;18.566;2023-02-02T00:11:15;12.45;;;4.40;;
42364;SDS011;28498;54.400;18.566;2023-02-02T00:13:43;16.92;;;5.40;;
42364;SDS011;28498;54.400;18.566;2023-02-02T00:18:57;23.83;;;6.18;;
42364;SDS011;28498;54.400;18.566;2023-02-02T00:21:26;18.83;;;5.82;;
42364;SDS011;28498;54.400;18.566;2023-02-02T00:23:54;23.60;;;5.95;;
42364;SDS011;28498;54.400;18.566;2023-02-02T00:26:21;19.35;;;5.55;;
42364;SDS011;28498;54.400;18.566;2023-02-02T00:28:48;16.60;;;6.53;;
42364;SDS011;28498;54.400;18.566;2023-02-02T00:31:15;18.25;;;5.65;;
42364;SDS011;28498;54.400;18.566;2023-02-02T00:33:46;33.10;;;7.47;;
42364;SDS011;28498;54.400;18.566;2023-02-02T00:36:14;28.55;;;5.72;;
42364;SDS011;28498;54.400;18.566;2023-02-02T00:38:42;24.10;;;6.35;;
42364;SDS011;28498;54.400;18.566;2023-02-02T00:41:09;30.95;;;7.38;;
42364;SDS011;28498;54.400;18.566;2023-02-02T00:43:36;23.50;;;6.20;;
42364;SDS011;28498;54.400;18.566;2023-02-02T00:46:03;25.23;;;6.60;;
42364;SDS011;28498;54.400;18.566;2023-02-02T00:48:31;27.67;;;8.25;;
42364;SDS011;28498;54.400;18.566;2023-02-02T00:50:58;25.70;;;6.82;;
42364;SDS011;28498;54.400;18.566;2023-02-02T00:53:27;29.27;;;6.25;;
42364;SDS011;28498;54.400;18.566;2023-02-02T00:55:54;25.17;;;5.82;;
42364;SDS011;28498;54.400;18.566;2023-02-02T00:58:21;27.10;;;6.15;;
42364;SDS011;28498;54.400;18.566;2023-02-02T01:00:48;24.77;;;6.22;;
42364;SDS011;28498;54.400;18.566;2023-02-02T01:03:15;29.20;;;5.90;;
42364;SDS011;28498;54.400;18.566;2023-02-02T01:05:42;20.27;;;5.82;;
42364;SDS011;28498;54.400;18.566;2023-02-02T01:08:09;27.95;;;6.68;;
42364;SDS011;28498;54.400;18.566;2023-02-02T01:10:36;22.92;;;7.40;;
42364;SDS011;28498;54.400;18.566;2023-02-02T01:13:03;33.30;;;6.85;;
42364;SDS011;28498;54.400;18.566;2023-02-02T01:15:30;24.92;;;5.72;;
42364;SDS011;28498;54.400;18.566;2023-02-02T01:17:57;29.58;;;6.35;;
42364;SDS011;28498;54.400;18.566;2023-02-02T01:20:24;25.33;;;5.30;;
42364;SDS011;28498;54.400;18.566;2023-02-02T01:22:51;24.63;;;5.93;;
42364;SDS011;28498;54.400;18.566;2023-02-02T01:25:18;22.40;;;5.38;;
42364;SDS011;28498;54.400;18.566;2023-02-02T01:27:45;26.02;;;5.35;;
42364;SDS011;28498;54.400;18.566;2023-02-02T01:30:12;32.60;;;6.47;;
42364;SDS011;28498;54.400;18.566;2023-02-02T01:32:39;29.67;;;6.32;;
42364;SDS011;28498;54.400;18.566;2023-02-02T01:35:06;26.02;;;6.75;;
42364;SDS011;28498;54.400;18.566;2023-02-02T01:37:35;26.95;;;6.07;;
42364;SDS011;28498;54.400;18.566;2023-02-02T01:40:04;27.90;;;5.85;;
42364;SDS011;28498;54.400;18.566;2023-02-02T01:42:31;28.20;;;5.43;;
42364;SDS011;28498;54.400;18.566;2023-02-02T01:48:01;27.02;;;6.00;;
42364;SDS011;28498;54.400;18.566;2023-02-02T01:50:31;23.55;;;5.95;;
42364;SDS011;28498;54.400;18.566;2023-02-02T01:53:00;21.23;;;4.65;;
42364;SDS011;28498;54.400;18.566;2023-02-02T01:55:30;23.48;;;5.00;;
42364;SDS011;28498;54.400;18.566;2023-02-02T01:58:06;27.38;;;4.78;;
42364;SDS011;28498;54.400;18.566;2023-02-02T02:00:42;27.15;;;6.47;;
42364;SDS011;28498;54.400;18.566;2023-02-02T02:03:13;22.40;;;5.07;;
42364;SDS011;28498;54.400;18.566;2023-02-02T02:05:48;24.90;;;4.85;;
42364;SDS011;28498;54.400;18.566;2023-02-02T02:08:27;29.17;;;4.72;;
42364;SDS011;28498;54.400;18.566;2023-02-02T02:10:56;33.43;;;7.30;;
42364;SDS011;28498;54.400;18.566;2023-02-02T02:13:24;26.52;;;7.13;;
42364;SDS011;28498;54.400;18.566;2023-02-02T02:16:24;20.33;;;4.55;;
42364;SDS011;28498;54.400;18.566;2023-02-02T02:19:08;22.60;;;4.57;;
42364;SDS011;28498;54.400;18.566;2023-02-02T02:36:59;19.75;;;5.03;;
42364;SDS011;28498;54.400;18.566;2023-02-02T02:39:16;20.40;;;4.20;;
42364;SDS011;28498;54.400;18.566;2023-02-02T02:41:56;24.42;;;4.30;;
42364;SDS011;28498;54.400;18.566;2023-02-02T02:44:29;22.23;;;4.60;;
42364;SDS011;28498;54.400;18.566;2023-02-02T02:46:58;21.88;;;4.88;;
42364;SDS011;28498;54.400;18.566;2023-02-02T02:49:25;31.92;;;5.93;;
42364;SDS011;28498;54.400;18.566;2023-02-02T02:51:53;19.17;;;5.45;;
42364;SDS011;28498;54.400;18.566;2023-02-02T02:54:23;13.07;;;4.10;;
42364;SDS011;28498;54.400;18.566;2023-02-02T03:02:40;23.50;;;5.18;;
42364;SDS011;28498;54.400;18.566;2023-02-02T03:10:44;23.88;;;4.60;;
42364;SDS011;28498;54.400;18.566;2023-02-02T03:13:13;19.50;;;4.65;;
42364;SDS011;28498;54.400;18.566;2023-02-02T03:15:42;22.50;;;5.13;;
42364;SDS011;28498;54.400;18.566;2023-02-02T03:18:14;31.67;;;6.63;;
42364;SDS011;28498;54.400;18.566;2023-02-02T03:20:43;21.25;;;4.75;;
42364;SDS011;28498;54.400;18.566;2023-02-02T03:23:11;22.65;;;5.25;;
42364;SDS011;28498;54.400;18.566;2023-02-02T03:25:39;27.40;;;4.47;;
42364;SDS011;28498;54.400;18.566;2023-02-02T03:28:07;18.65;;;4.38;;
42364;SDS011;28498;54.400;18.566;2023-02-02T03:30:34;22.45;;;4.45;;
42364;SDS011;28498;54.400;18.566;2023-02-02T03:33:03;28.42;;;5.55;;
42364;SDS011;28498;54.400;18.566;2023-02-02T03:35:31;20.00;;;4.75;;
42364;SDS011;28498;54.400;18.566;2023-02-02T03:37:58;18.88;;;5.00;;
42364;SDS011;28498;54.400;18.566;2023-02-02T03:40:26;18.48;;;4.68;;
42364;SDS011;28498;54.400;18.566;2023-02-02T03:42:54;17.65;;;4.70;;
42364;SDS011;28498;54.400;18.566;2023-02-02T03:45:21;25.42;;;6.63;;
42364;SDS011;28498;54.400;18.566;2023-02-02T03:47:49;20.38;;;4.97;;
42364;SDS011;28498;54.400;18.566;2023-02-02T03:50:16;19.05;;;4.82;;
42364;SDS011;28498;54.400;18.566;2023-02-02T03:52:43;21.17;;;4.90;;
42364;SDS011;28498;54.400;18.566;2023-02-02T03:55:10;16.98;;;4.00;;
42364;SDS011;28498;54.400;18.566;2023-02-02T03:57:37;24.05;;;4.90;;
42364;SDS011;28498;54.400;18.566;2023-02-02T04:00:04;14.65;;;5.35;;
42364;SDS011;28498;54.400;18.566;2023-02-02T04:02:32;18.55;;;5.00;;
42364;SDS011;28498;54.400;18.566;2023-02-02T04:04:59;19.92;;;4.95;;
42364;SDS011;28498;54.400;18.566;2023-02-02T04:07:26;18.08;;;4.68;;
42364;SDS011;28498;54.400;18.566;2023-02-02T04:09:53;21.50;;;4.70;;
42364;SDS011;28498;54.400;18.566;2023-02-02T04:12:20;17.40;;;4.35;;
42364;SDS011;28498;54.400;18.566;2023-02-02T04:14:47;17.55;;;6.68;;
42364;SDS011;28498;54.400;18.566;2023-02-02T04:17:14;13.75;;;5.38;;
42364;SDS011;28498;54.400;18.566;2023-02-02T04:19:41;16.63;;;4.47;;
42364;SDS011;28498;54.400;18.566;2023-02-02T04:22:07;20.73;;;4.63;;
42364;SDS011;28498;54.400;18.566;2023-02-02T04:24:34;16.02;;;4.03;;
42364;SDS011;28498;54.400;18.566;2023-02-02T04:27:03;13.85;;;4.53;;
42364;SDS011;28498;54.400;18.566;2023-02-02T04:29:30;17.48;;;4.50;;
42364;SDS011;28498;54.400;18.566;2023-02-02T04:31:57;24.10;;;5.00;;
42364;SDS011;28498;54.400;18.566;2023-02-02T04:34:24;12.52;;;3.72;;
42364;SDS011;28498;54.400;18.566;2023-02-02T04:36:51;18.00;;;5.05;;
42364;SDS011;28498;54.400;18.566;2023-02-02T04:39:18;13.55;;;4.30;;
42364;SDS011;28498;54.400;18.566;2023-02-02T04:41:45;15.50;;;3.75;;
42364;SDS011;28498;54.400;18.566;2023-02-02T04:44:15;22.38;;;4.68;;
42364;SDS011;28498;54.400;18.566;2023-02-02T04:46:42;14.30;;;4.20;;
42364;SDS011;28498;54.400;18.566;2023-02-02T04:49:10;15.27;;;4.63;;
42364;SDS011;28498;54.400;18.566;2023-02-02T04:51:38;9.65;;;3.33;;
42364;SDS011;28498;54.400;18.566;2023-02-02T04:54:06;12.30;;;4.63;;
42364;SDS011;28498;54.400;18.566;2023-02-02T04:56:33;16.65;;;4.13;;
42364;SDS011;28498;54.400;18.566;2023-02-02T04:59:01;14.10;;;3.75;;
42364;SDS011;28498;54.400;18.566;2023-02-02T05:01:28;15.23;;;4.97;;
42364;SDS011;28498;54.400;18.566;2023-02-02T05:03:56;18.48;;;4.82;;
42364;SDS011;28498;54.400;18.566;2023-02-02T05:06:23;15.52;;;4.57;;
42364;SDS011;28498;54.400;18.566;2023-02-02T05:08:50;14.95;;;4.32;;
42364;SDS011;28498;54.400;18.566;2023-02-02T05:11:19;10.88;;;4.75;;
42364;SDS011;28498;54.400;18.566;2023-02-02T05:13:51;15.10;;;3.92;;
42364;SDS011;28498;54.400;18.566;2023-02-02T05:16:20;12.07;;;4.20;;
42364;SDS011;28498;54.400;18.566;2023-02-02T05:18:49;9.73;;;4.28;;
42364;SDS011;28498;54.400;18.566;2023-02-02T05:21:18;13.77;;;4.45;;
42364;SDS011;28498;54.400;18.566;2023-02-02T05:23:46;16.83;;;4.10;;
42364;SDS011;28498;54.400;18.566;2023-02-02T05:26:14;17.05;;;5.07;;
42364;SDS011;28498;54.400;18.566;2023-02-02T05:28:44;9.20;;;4.35;;
42364;SDS011;28498;54.400;18.566;2023-02-02T05:31:11;14.48;;;4.63;;
42364;SDS011;28498;54.400;18.566;2023-02-02T05:33:38;15.05;;;4.38;;
42364;SDS011;28498;54.400;18.566;2023-02-02T05:36:05;11.50;;;4.28;;
42364;SDS011;28498;54.400;18.566;2023-02-02T05:38:33;13.93;;;4.97;;
42364;SDS011;28498;54.400;18.566;2023-02-02T05:41:00;7.80;;;4.10;;
42364;SDS011;28498;54.400;18.566;2023-02-02T05:43:28;13.07;;;4.90;;
42364;SDS011;28498;54.400;18.566;2023-02-02T05:45:56;13.48;;;3.88;;
42364;SDS011;28498;54.400;18.566;2023-02-02T05:48:23;11.27;;;4.20;;
42364;SDS011;28498;54.400;18.566;2023-02-02T05:51:33;16.58;;;4.85;;
42364;SDS011;28498;54.400;18.566;2023-02-02T05:53:42;13.75;;;4.35;;
42364;SDS011;28498;54.400;18.566;2023-02-02T05:56:12;12.93;;;5.28;;
42364;SDS011;28498;54.400;18.566;2023-02-02T05:58:41;11.88;;;4.40;;
42364;SDS011;28498;54.400;18.566;2023-02-02T06:01:09;10.07;;;4.38;;
42364;SDS011;28498;54.400;18.566;2023-02-02T06:03:37;13.80;;;4.47;;
42364;SDS011;28498;54.400;18.566;2023-02-02T06:06:04;9.35;;;4.35;;
42364;SDS011;28498;54.400;18.566;2023-02-02T06:08:32;9.13;;;4.82;;
42364;SDS011;28498;54.400;18.566;2023-02-02T06:11:06;7.80;;;3.80;;
42364;SDS011;28498;54.400;18.566;2023-02-02T06:13:35;9.63;;;3.55;;
42364;SDS011;28498;54.400;18.566;2023-02-02T06:16:02;11.95;;;4.57;;
42364;SDS011;28498;54.400;18.566;2023-02-02T06:18:29;6.78;;;2.63;;
42364;SDS011;28498;54.400;18.566;2023-02-02T06:20:59;5.30;;;2.60;;
42364;SDS011;28498;54.400;18.566;2023-02-02T06:23:28;5.78;;;2.45;;
42364;SDS011;28498;54.400;18.566;2023-02-02T06:25:55;7.00;;;2.75;;
42364;SDS011;28498;54.400;18.566;2023-02-02T06:28:22;5.00;;;2.00;;
42364;SDS011;28498;54.400;18.566;2023-02-02T06:30:49;4.30;;;1.90;;
42364;SDS011;28498;54.400;18.566;2023-02-02T06:33:16;3.25;;;1.77;;
42364;SDS011;28498;54.400;18.566;2023-02-02T06:35:43;3.47;;;1.48;;
42364;SDS011;28498;54.400;18.566;2023-02-02T06:38:10;4.50;;;1.80;;
42364;SDS011;28498;54.400;18.566;2023-02-02T06:40:37;3.95;;;1.77;;
42364;SDS011;28498;54.400;18.566;2023-02-02T06:43:04;2.80;;;1.40;;
42364;SDS011;28498;54.400;18.566;2023-02-02T06:45:31;4.00;;;1.75;;
42364;SDS011;28498;54.400;18.566;2023-02-02T06:47:59;3.17;;;1.48;;
42364;SDS011;28498;54.400;18.566;2023-02-02T06:50:28;2.42;;;1.35;;
42364;SDS011;28498;54.400;18.566;2023-02-02T06:52:56;4.65;;;1.35;;
42364;SDS011;28498;54.400;18.566;2023-02-02T06:55:23;2.78;;;1.30;;
42364;SDS011;28498;54.400;18.566;2023-02-02T06:57:54;3.00;;;1.60;;
42364;SDS011;28498;54.400;18.566;2023-02-02T07:00:26;8.52;;;1.83;;
42364;SDS011;28498;54.400;18.566;2023-02-02T07:02:54;2.63;;;1.33;;
42364;SDS011;28498;54.400;18.566;2023-02-02T07:05:21;3.15;;;1.73;;
42364;SDS011;28498;54.400;18.566;2023-02-02T07:07:50;5.70;;;1.85;;
42364;SDS011;28498;54.400;18.566;2023-02-02T07:10:17;3.40;;;1.55;;
42364;SDS011;28498;54.400;18.566;2023-02-02T07:13:04;5.63;;;2.25;;
42364;SDS011;28498;54.400;18.566;2023-02-02T07:15:32;5.07;;;1.98;;
42364;SDS011;28498;54.400;18.566;2023-02-02T07:17:59;5.70;;;2.38;;
42364;SDS011;28498;54.400;18.566;2023-02-02T07:20:26;4.15;;;1.83;;
42364;SDS011;28498;54.400;18.566;2023-02-02T07:22:54;8.25;;;1.92;;
42364;SDS011;28498;54.400;18.566;2023-02-02T07:25:21;7.28;;;2.05;;
42364;SDS011;28498;54.400;18.566;2023-02-02T07:27:52;5.35;;;2.10;;
42364;SDS011;28498;54.400;18.566;2023-02-02T07:30:20;4.32;;;1.92;;
42364;SDS011;28498;54.400;18.566;2023-02-02T07:32:47;5.57;;;2.47;;
42364;SDS011;28498;54.400;18.566;2023-02-02T07:35:15;7.63;;;2.97;;
42364;SDS011;28498;54.400;18.566;2023-02-02T07:37:42;9.85;;;4.40;;
42364;SDS011;28498;54.400;18.566;2023-02-02T07:40:10;6.93;;;3.78;;
42364;SDS011;28498;54.400;18.566;2023-02-02T07:42:37;6.20;;;2.65;;
42364;SDS011;28498;54.400;18.566;2023-02-02T07:45:04;8.88;;;2.47;;
42364;SDS011;28498;54.400;18.566;2023-02-02T07:47:55;7.85;;;2.83;;
42364;SDS011;28498;54.400;18.566;2023-02-02T07:50:26;9.68;;;3.05;;
42364;SDS011;28498;54.400;18.566;2023-02-02T07:52:55;6.95;;;2.50;;
42364;SDS011;28498;54.400;18.566;2023-02-02T07:59:11;8.48;;;2.70;;
42364;SDS011;28498;54.400;18.566;2023-02-02T08:01:38;5.82;;;2.70;;
42364;SDS011;28498;54.400;18.566;2023-02-02T08:04:05;14.27;;;3.85;;
42364;SDS011;28498;54.400;18.566;2023-02-02T08:06:33;22.35;;;4.63;;
42364;SDS011;28498;54.400;18.566;2023-02-02T08:09:02;7.68;;;2.95;;
42364;SDS011;28498;54.400;18.566;2023-02-02T08:11:30;11.82;;;3.45;;
42364;SDS011;28498;54.400;18.566;2023-02-02T08:13:58;15.23;;;4.50;;
42364;SDS011;28498;54.400;18.566;2023-02-02T08:16:27;8.23;;;3.38;;
42364;SDS011;28498;54.400;18.566;2023-02-02T08:18:56;7.40;;;2.28;;
42364;SDS011;28498;54.400;18.566;2023-02-02T08:21:24;9.70;;;3.47;;
42364;SDS011;28498;54.400;18.566;2023-02-02T08:23:51;7.03;;;3.75;;
42364;SDS011;28498;54.400;18.566;2023-02-02T08:26:22;7.05;;;3.58;;
42364;SDS011;28498;54.400;18.566;2023-02-02T08:28:58;7.00;;;3.45;;
42364;SDS011;28498;54.400;18.566;2023-02-02T08:31:38;7.38;;;3.55;;
42364;SDS011;28498;54.400;18.566;2023-02-02T08:34:09;7.97;;;3.38;;
42364;SDS011;28498;54.400;18.566;2023-02-02T08:36:36;6.90;;;2.83;;
42364;SDS011;28498;54.400;18.566;2023-02-02T08:39:07;10.25;;;3.20;;
42364;SDS011;28498;54.400;18.566;2023-02-02T08:41:37;7.90;;;2.80;;
42364;SDS011;28498;54.400;18.566;2023-02-02T08:44:07;7.15;;;2.95;;
42364;SDS011;28498;54.400;18.566;2023-02-02T08:46:37;5.70;;;3.20;;
42364;SDS011;28498;54.400;18.566;2023-02-02T08:49:04;11.32;;;3.35;;
42364;SDS011;28498;54.400;18.566;2023-02-02T08:51:31;6.40;;;2.80;;
42364;SDS011;28498;54.400;18.566;2023-02-02T08:53:58;6.72;;;3.05;;
42364;SDS011;28498;54.400;18.566;2023-02-02T08:56:25;4.32;;;2.55;;
42364;SDS011;28498;54.400;18.566;2023-02-02T08:58:53;7.35;;;2.92;;
42364;SDS011;28498;54.400;18.566;2023-02-02T09:01:22;8.32;;;2.60;;
42364;SDS011;28498;54.400;18.566;2023-02-02T09:03:58;5.20;;;2.72;;
42364;SDS011;28498;54.400;18.566;2023-02-02T09:06:30;6.60;;;2.53;;
42364;SDS011;28498;54.400;18.566;2023-02-02T09:08:59;5.63;;;2.40;;
42364;SDS011;28498;54.400;18.566;2023-02-02T09:11:26;9.07;;;3.35;;
42364;SDS011;28498;54.400;18.566;2023-02-02T09:13:55;5.85;;;1.95;;
42364;SDS011;28498;54.400;18.566;2023-02-02T09:16:24;6.05;;;1.90;;
42364;SDS011;28498;54.400;18.566;2023-02-02T09:18:52;3.45;;;1.80;;
42364;SDS011;28498;54.400;18.566;2023-02-02T09:21:20;3.50;;;1.48;;
42364;SDS011;28498;54.400;18.566;2023-02-02T09:23:48;5.65;;;2.08;;
42364;SDS011;28498;54.400;18.566;2023-02-02T09:28:45;4.93;;;2.20;;
42364;SDS011;28498;54.400;18.566;2023-02-02T09:31:14;6.55;;;2.15;;
42364;SDS011;28498;54.400;18.566;2023-02-02T09:33:42;6.78;;;1.90;;
42364;SDS011;28498;54.400;18.566;2023-02-02T09:36:10;5.15;;;1.85;;
42364;SDS011;28498;54.400;18.566;2023-02-02T09:38:38;4.97;;;2.00;;
42364;SDS011;28498;54.400;18.566;2023-02-02T09:52:39;3.28;;;1.30;;
42364;SDS011;28498;54.400;18.566;2023-02-02T09:58:29;2.63;;;1.00;;
42364;SDS011;28498;54.400;18.566;2023-02-02T10:00:58;3.45;;;1.20;;
42364;SDS011;28498;54.400;18.566;2023-02-02T10:06:32;4.47;;;2.17;;
42364;SDS011;28498;54.400;18.566;2023-02-02T10:12:05;6.38;;;2.90;;
42364;SDS011;28498;54.400;18.566;2023-02-02T10:14:51;4.47;;;2.25;;
42364;SDS011;28498;54.400;18.566;2023-02-02T10:20:13;6.22;;;2.55;;
42364;SDS011;28498;54.400;18.566;2023-02-02T10:22:43;6.68;;;3.10;;
42364;SDS011;28498;54.400;18.566;2023-02-02T10:25:13;9.88;;;3.42;;
42364;SDS011;28498;54.400;18.566;2023-02-02T10:27:45;6.10;;;3.38;;
42364;SDS011;28498;54.400;18.566;2023-02-02T10:30:43;7.25;;;4.47;;
42364;SDS011;28498;54.400;18.566;2023-02-02T10:38:42;5.05;;;2.35;;
42364;SDS011;28498;54.400;18.566;2023-02-02T10:41:22;4.43;;;1.55;;
42364;SDS011;28498;54.400;18.566;2023-02-02T10:46:48;3.40;;;1.88;;
42364;SDS011;28498;54.400;18.566;2023-02-02T10:49:34;2.35;;;1.30;;
42364;SDS011;28498;54.400;18.566;2023-02-02T10:52:14;5.15;;;1.50;;
42364;SDS011;28498;54.400;18.566;2023-02-02T10:54:53;5.35;;;2.20;;
42364;SDS011;28498;54.400;18.566;2023-02-02T11:00:35;4.82;;;3.45;;
42364;SDS011;28498;54.400;18.566;2023-02-02T11:03:08;6.35;;;2.40;;
42364;SDS011;28498;54.400;18.566;2023-02-02T11:05:37;5.55;;;2.42;;
42364;SDS011;28498;54.400;18.566;2023-02-02T11:11:17;3.83;;;1.92;;
42364;SDS011;28498;54.400;18.566;2023-02-02T11:13:58;8.38;;;2.95;;
42364;SDS011;28498;54.400;18.566;2023-02-02T11:16:35;2.75;;;1.30;;
42364;SDS011;28498;54.400;18.566;2023-02-02T11:25:32;5.60;;;2.33;;
42364;SDS011;28498;54.400;18.566;2023-02-02T11:28:11;6.13;;;2.38;;
42364;SDS011;28498;54.400;18.566;2023-02-02T11:30:48;4.03;;;2.05;;
42364;SDS011;28498;54.400;18.566;2023-02-02T11:33:29;10.25;;;3.28;;
42364;SDS011;28498;54.400;18.566;2023-02-02T11:36:02;5.25;;;2.42;;
42364;SDS011;28498;54.400;18.566;2023-02-02T11:38:44;4.85;;;1.70;;
42364;SDS011;28498;54.400;18.566;2023-02-02T11:41:11;3.72;;;2.00;;
42364;SDS011;28498;54.400;18.566;2023-02-02T11:46:20;2.92;;;1.30;;
42364;SDS011;28498;54.400;18.566;2023-02-02T11:51:24;3.20;;;1.45;;
42364;SDS011;28498;54.400;18.566;2023-02-02T11:54:15;7.32;;;2.58;;
42364;SDS011;28498;54.400;18.566;2023-02-02T11:56:40;2.45;;;1.23;;
42364;SDS011;28498;54.400;18.566;2023-02-02T12:04:38;4.32;;;1.20;;
42364;SDS011;28498;54.400;18.566;2023-02-02T12:07:18;5.03;;;2.25;;
42364;SDS011;28498;54.400;18.566;2023-02-02T12:09:55;15.23;;;7.07;;
42364;SDS011;28498;54.400;18.566;2023-02-02T12:13:08;3.10;;;1.40;;
42364;SDS011;28498;54.400;18.566;2023-02-02T12:17:59;3.53;;;1.17;;
42364;SDS011;28498;54.400;18.566;2023-02-02T12:21:00;5.88;;;2.22;;
42364;SDS011;28498;54.400;18.566;2023-02-02T12:26:31;5.60;;;2.88;;
42364;SDS011;28498;54.400;18.566;2023-02-02T12:38:05;3.67;;;1.55;;
42364;SDS011;28498;54.400;18.566;2023-02-02T12:43:41;3.65;;;1.48;;
42364;SDS011;28498;54.400;18.566;2023-02-02T12:52:33;6.60;;;2.25;;
42364;SDS011;28498;54.400;18.566;2023-02-02T13:06:07;8.38;;;2.92;;
42364;SDS011;28498;54.400;18.566;2023-02-02T13:11:47;7.57;;;3.22;;
42364;SDS011;28498;54.400;18.566;2023-02-02T13:17:14;9.52;;;3.60;;
42364;SDS011;28498;54.400;18.566;2023-02-02T13:19:51;8.70;;;3.75;;
42364;SDS011;28498;54.400;18.566;2023-02-02T13:22:22;6.63;;;3.50;;
42364;SDS011;28498;54.400;18.566;2023-02-02T13:24:54;7.13;;;3.60;;
42364;SDS011;28498;54.400;18.566;2023-02-02T13:27:26;6.68;;;3.22;;
42364;SDS011;28498;54.400;18.566;2023-02-02T13:30:04;10.40;;;3.75;;
42364;SDS011;28498;54.400;18.566;2023-02-02T13:32:56;9.45;;;3.90;;
42364;SDS011;28498;54.400;18.566;2023-02-02T13:35:33;10.13;;;3.65;;
42364;SDS011;28498;54.400;18.566;2023-02-02T13:38:20;8.95;;;2.90;;
42364;SDS011;28498;54.400;18.566;2023-02-02T13:40:53;10.18;;;3.30;;
42364;SDS011;28498;54.400;18.566;2023-02-02T13:46:19;11.32;;;3.00;;
42364;SDS011;28498;54.400;18.566;2023-02-02T13:59:47;5.82;;;3.05;;
42364;SDS011;28498;54.400;18.566;2023-02-02T14:15:56;5.68;;;2.30;;
42364;SDS011;28498;54.400;18.566;2023-02-02T14:24:02;4.47;;;2.05;;
42364;SDS011;28498;54.400;18.566;2023-02-02T14:26:53;5.93;;;2.47;;
42364;SDS011;28498;54.400;18.566;2023-02-02T14:31:56;7.80;;;2.25;;
42364;SDS011;28498;54.400;18.566;2023-02-02T14:39:47;5.13;;;2.25;;
42364;SDS011;28498;54.400;18.566;2023-02-02T14:45:30;4.53;;;2.67;;
42364;SDS011;28498;54.400;18.566;2023-02-02T14:47:59;7.15;;;1.88;;
42364;SDS011;28498;54.400;18.566;2023-02-02T14:55:35;4.35;;;1.77;;
42364;SDS011;28498;54.400;18.566;2023-02-02T14:58:27;4.43;;;2.03;;
42364;SDS011;28498;54.400;18.566;2023-02-02T15:03:56;3.75;;;1.30;;
42364;SDS011;28498;54.400;18.566;2023-02-02T15:06:53;2.90;;;1.63;;
42364;SDS011;28498;54.400;18.566;2023-02-02T15:17:29;6.32;;;2.20;;
42364;SDS011;28498;54.400;18.566;2023-02-02T15:20:11;5.03;;;2.20;;
42364;SDS011;28498;54.400;18.566;2023-02-02T15:28:36;9.02;;;2.67;;
42364;SDS011;28498;54.400;18.566;2023-02-02T15:31:12;6.55;;;2.40;;
42364;SDS011;28498;54.400;18.566;2023-02-02T15:33:41;7.50;;;2.90;;
42364;SDS011;28498;54.400;18.566;2023-02-02T15:36:15;6.05;;;2.92;;
42364;SDS011;28498;54.400;18.566;2023-02-02T15:38:47;5.53;;;2.35;;
42364;SDS011;28498;54.400;18.566;2023-02-02T15:41:18;5.90;;;2.85;;
42364;SDS011;28498;54.400;18.566;2023-02-02T15:43:49;7.35;;;3.30;;
42364;SDS011;28498;54.400;18.566;2023-02-02T15:46:36;4.88;;;2.60;;
42364;SDS011;28498;54.400;18.566;2023-02-02T15:52:02;5.22;;;2.30;;
42364;SDS011;28498;54.400;18.566;2023-02-02T15:54:57;5.40;;;2.40;;
42364;SDS011;28498;54.400;18.566;2023-02-02T15:59:52;6.32;;;2.25;;
42364;SDS011;28498;54.400;18.566;2023-02-02T16:02:26;5.05;;;2.10;;
42364;SDS011;28498;54.400;18.566;2023-02-02T16:04:55;4.82;;;2.72;;
42364;SDS011;28498;54.400;18.566;2023-02-02T16:07:29;6.07;;;2.90;;
42364;SDS011;28498;54.400;18.566;2023-02-02T16:10:05;8.52;;;2.70;;
42364;SDS011;28498;54.400;18.566;2023-02-02T16:12:33;8.18;;;3.42;;
42364;SDS011;28498;54.400;18.566;2023-02-02T16:15:00;5.80;;;2.95;;
42364;SDS011;28498;54.400;18.566;2023-02-02T16:17:28;7.43;;;3.35;;
42364;SDS011;28498;54.400;18.566;2023-02-02T16:19:59;10.18;;;3.67;;
42364;SDS011;28498;54.400;18.566;2023-02-02T16:22:32;9.32;;;2.88;;
42364;SDS011;28498;54.400;18.566;2023-02-02T16:25:01;9.90;;;3.50;;
42364;SDS011;28498;54.400;18.566;2023-02-02T16:27:34;8.68;;;3.22;;
42364;SDS011;28498;54.400;18.566;2023-02-02T16:30:04;9.65;;;3.53;;
42364;SDS011;28498;54.400;18.566;2023-02-02T16:32:34;6.45;;;3.65;;
42364;SDS011;28498;54.400;18.566;2023-02-02T16:35:06;8.23;;;3.90;;
42364;SDS011;28498;54.400;18.566;2023-02-02T16:37:53;8.30;;;3.47;;
42364;SDS011;28498;54.400;18.566;2023-02-02T16:40:42;6.90;;;3.40;;
42364;SDS011;28498;54.400;18.566;2023-02-02T16:43:17;7.68;;;2.55;;
42364;SDS011;28498;54.400;18.566;2023-02-02T16:45:47;4.80;;;2.50;;
42364;SDS011;28498;54.400;18.566;2023-02-02T16:53:44;10.18;;;3.00;;
42364;SDS011;28498;54.400;18.566;2023-02-02T16:56:25;3.80;;;2.45;;
42364;SDS011;28498;54.400;18.566;2023-02-02T16:58:55;7.45;;;2.60;;
42364;SDS011;28498;54.400;18.566;2023-02-02T17:01:36;4.22;;;2.80;;
42364;SDS011;28498;54.400;18.566;2023-02-02T17:04:15;5.45;;;2.70;;
42364;SDS011;28498;54.400;18.566;2023-02-02T17:06:48;5.80;;;2.90;;
42364;SDS011;28498;54.400;18.566;2023-02-02T17:12:21;11.23;;;2.72;;
42364;SDS011;28498;54.400;18.566;2023-02-02T17:15:47;10.90;;;2.97;;
42364;SDS011;28498;54.400;18.566;2023-02-02T17:17:54;11.27;;;2.97;;
42364;SDS011;28498;54.400;18.566;2023-02-02T17:20:22;6.85;;;2.75;;
42364;SDS011;28498;54.400;18.566;2023-02-02T17:22:50;8.65;;;2.65;;
42364;SDS011;28498;54.400;18.566;2023-02-02T17:25:25;6.57;;;2.33;;
42364;SDS011;28498;54.400;18.566;2023-02-02T17:30:21;5.40;;;2.40;;
42364;SDS011;28498;54.400;18.566;2023-02-02T17:32:49;4.47;;;2.50;;
42364;SDS011;28498;54.400;18.566;2023-02-02T17:35:23;5.82;;;2.70;;
42364;SDS011;28498;54.400;18.566;2023-02-02T17:37:53;5.00;;;2.60;;
42364;SDS011;28498;54.400;18.566;2023-02-02T17:40:21;4.40;;;1.90;;
42364;SDS011;28498;54.400;18.566;2023-02-02T17:42:50;3.80;;;1.88;;
42364;SDS011;28498;54.400;18.566;2023-02-02T17:45:23;8.98;;;2.53;;
42364;SDS011;28498;54.400;18.566;2023-02-02T17:48:01;3.75;;;1.75;;
42364;SDS011;28498;54.400;18.566;2023-02-02T17:50:29;5.85;;;2.15;;
42364;SDS011;28498;54.400;18.566;2023-02-02T17:52:58;5.32;;;2.65;;
42364;SDS011;28498;54.400;18.566;2023-02-02T17:55:29;4.32;;;2.00;;
42364;SDS011;28498;54.400;18.566;2023-02-02T17:57:58;5.03;;;2.17;;
42364;SDS011;28498;54.400;18.566;2023-02-02T18:00:25;5.75;;;2.30;;
42364;SDS011;28498;54.400;18.566;2023-02-02T18:03:00;4.50;;;2.10;;
42364;SDS011;28498;54.400;18.566;2023-02-02T18:09:14;4.10;;;1.90;;
42364;SDS011;28498;54.400;18.566;2023-02-02T18:11:41;4.75;;;2.20;;
42364;SDS011;28498;54.400;18.566;2023-02-02T18:14:10;4.15;;;1.95;;
42364;SDS011;28498;54.400;18.566;2023-02-02T18:16:37;3.30;;;1.65;;
42364;SDS011;28498;54.400;18.566;2023-02-02T18:19:04;5.45;;;1.67;;
42364;SDS011;28498;54.400;18.566;2023-02-02T18:21:31;3.95;;;1.77;;
42364;SDS011;28498;54.400;18.566;2023-02-02T18:23:58;2.60;;;1.30;;
42364;SDS011;28498;54.400;18.566;2023-02-02T18:26:25;3.47;;;1.80;;
42364;SDS011;28498;54.400;18.566;2023-02-02T18:28:52;4.60;;;2.03;;
42364;SDS011;28498;54.400;18.566;2023-02-02T18:31:20;5.07;;;2.13;;